Time;durP1;ratioP1;P1;durP2;ratioP2;P2;SDS_P1;SDS_P2;PMS_P1;PMS_P2;Temp;Humidity;BMP_temperature;BMP_pressure;BME280_temperature;BME280_humidity;BME280_pressure;Samples;Min_cycle;Max_cycle;Signal;HPM_P1;HPM_P2
2022/02/24 00:01:57;;;;;;;5.25;1.13;;;;;;;5.92;84.38;100933.56;5208523;28;20132;-78
2022/02/24 00:04:27;;;;;;;7.68;1.13;;;;;;;5.99;83.23;100935.19;5209675;28;20029;-77
2022/02/24 00:06:58;;;;;;;6.82;1.30;;;;;;;5.99;83.76;100930.00;5203005;28;20041;-78
2022/02/24 00:09:28;;;;;;;6.97;1.27;;;;;;;5.92;84.75;100934.41;5199204;28;20069;-77
2022/02/24 00:12:02;;;;;;;4.65;0.95;;;;;;;5.94;84.17;100922.28;5202131;28;20404;-81
2022/02/24 00:14:32;;;;;;;6.85;1.10;;;;;;;6.01;83.81;100915.28;5200164;28;20032;-81
2022/02/24 00:17:02;;;;;;;10.57;1.00;;;;;;;5.97;83.99;100906.69;5200899;28;20307;-80
2022/02/24 00:19:33;;;;;;;7.97;1.35;;;;;;;6.08;83.57;100904.81;5200304;28;20033;-81
2022/02/24 00:22:04;;;;;;;7.72;1.40;;;;;;;6.03;83.76;100900.56;5198457;28;20025;-77
2022/02/24 00:24:35;;;;;;;7.45;1.27;;;;;;;6.04;83.78;100903.16;5201223;28;20435;-80
2022/02/24 00:27:05;;;;;;;6.45;1.17;;;;;;;6.04;83.64;100899.69;5198975;28;20097;-81
2022/02/24 00:29:35;;;;;;;5.07;1.05;;;;;;;6.07;83.20;100902.25;5200965;28;20061;-80
2022/02/24 00:32:06;;;;;;;5.43;1.00;;;;;;;6.05;83.39;100893.66;5198065;28;20034;-79
2022/02/24 00:34:36;;;;;;;5.47;0.93;;;;;;;6.15;83.19;100895.22;5203534;28;20098;-79
2022/02/24 00:37:07;;;;;;;6.38;1.08;;;;;;;6.01;83.36;100886.75;5201834;28;20120;-78
2022/02/24 00:39:37;;;;;;;5.38;1.00;;;;;;;5.96;84.57;100891.16;5196818;28;20034;-78
2022/02/24 00:42:07;;;;;;;6.13;1.00;;;;;;;5.63;85.32;100884.59;5203155;28;20038;-79
2022/02/24 00:44:38;;;;;;;6.18;1.48;;;;;;;5.59;85.37;100876.84;5214157;28;20041;-78
2022/02/24 00:47:08;;;;;;;6.15;1.05;;;;;;;5.48;85.52;100873.50;5197625;28;20029;-79
2022/02/24 00:49:39;;;;;;;4.10;1.00;;;;;;;5.50;85.74;100875.22;5197231;28;20037;-79
2022/02/24 00:52:09;;;;;;;5.07;1.30;;;;;;;5.45;85.43;100864.03;5198751;28;20026;-80
2022/02/24 00:54:39;;;;;;;6.05;1.42;;;;;;;5.20;86.78;100871.19;5199019;28;20044;-80
2022/02/24 00:57:09;;;;;;;5.95;1.20;;;;;;;5.10;87.15;100873.00;5198417;28;20158;-80
2022/02/24 00:59:40;;;;;;;6.65;1.02;;;;;;;5.05;87.81;100856.66;5197888;28;20033;-80
2022/02/24 01:02:11;;;;;;;7.30;1.10;;;;;;;5.14;86.91;100851.38;5200490;28;20024;-78
2022/02/24 01:04:41;;;;;;;5.70;1.30;;;;;;;5.05;88.18;100856.66;5206068;28;20021;-78
2022/02/24 01:07:12;;;;;;;3.83;1.10;;;;;;;5.00;88.15;100860.16;5200388;28;20398;-81
2022/02/24 01:09:42;;;;;;;4.00;1.00;;;;;;;5.01;88.54;100849.78;5195522;28;20059;-79
2022/02/24 01:12:12;;;;;;;3.58;1.05;;;;;;;4.98;88.38;100854.16;5202108;28;20029;-81
2022/02/24 01:14:42;;;;;;;4.70;0.90;;;;;;;4.93;89.33;100846.41;5205566;28;20503;-80
2022/02/24 01:17:13;;;;;;;5.55;1.20;;;;;;;5.00;89.50;100848.06;5208929;28;20197;-80
2022/02/24 01:19:43;;;;;;;4.68;1.00;;;;;;;4.90;89.92;100837.78;5199750;28;20041;-78
2022/02/24 01:22:13;;;;;;;8.02;1.10;;;;;;;5.06;89.67;100829.91;5198509;28;20020;-77
2022/02/24 01:24:44;;;;;;;6.88;1.10;;;;;;;5.13;89.61;100821.19;5204571;28;20112;-78
2022/02/24 01:27:14;;;;;;;4.93;1.10;;;;;;;5.18;89.88;100801.25;5208365;28;20493;-79
2022/02/24 01:29:44;;;;;;;4.80;1.38;;;;;;;5.21;89.73;100806.44;5205125;28;20025;-77
2022/02/24 01:32:15;;;;;;;5.28;1.17;;;;;;;5.20;89.69;100796.06;5208045;28;20033;-78
2022/02/24 01:34:46;;;;;;;6.40;1.00;;;;;;;5.19;90.40;100777.06;5205719;28;20026;-79
2022/02/24 01:37:16;;;;;;;3.75;0.90;;;;;;;5.16;90.70;100771.94;5202334;28;20041;-78
2022/02/24 01:39:46;;;;;;;4.90;1.00;;;;;;;5.16;90.92;100760.72;5195474;28;20042;-78
2022/02/24 01:42:17;;;;;;;6.00;1.30;;;;;;;5.22;91.37;100761.53;5203056;28;20426;-79
2022/02/24 01:44:47;;;;;;;5.28;1.13;;;;;;;5.26;91.05;100760.59;5196756;28;20196;-80
2022/02/24 01:47:18;;;;;;;4.45;1.20;;;;;;;5.30;90.96;100757.09;5199463;28;20099;-80
2022/02/24 01:49:48;;;;;;;3.25;0.88;;;;;;;5.43;90.82;100756.09;5199635;28;20399;-81
2022/02/24 01:52:19;;;;;;;7.90;1.10;;;;;;;5.48;90.41;100756.88;5216233;28;20043;-77
2022/02/24 01:54:49;;;;;;;6.82;1.35;;;;;;;5.54;89.99;100741.28;5200801;28;20033;-79
2022/02/24 01:57:21;;;;;;;4.20;1.10;;;;;;;5.63;89.82;100746.31;5202802;28;20025;-80
2022/02/24 01:59:51;;;;;;;6.95;1.10;;;;;;;5.69;90.46;100738.44;5201610;28;20107;-80
2022/02/24 02:02:22;;;;;;;7.15;1.40;;;;;;;5.68;90.22;100734.16;5195611;28;20026;-81
2022/02/24 02:04:52;;;;;;;5.68;1.10;;;;;;;5.60;91.01;100736.00;5201172;28;20017;-81
2022/02/24 02:07:23;;;;;;;6.05;0.98;;;;;;;5.58;91.93;100724.78;5202604;28;20055;-79
2022/02/24 02:09:54;;;;;;;4.20;0.90;;;;;;;5.66;92.04;100729.00;5200327;28;20049;-79
2022/02/24 02:12:24;;;;;;;4.38;1.20;;;;;;;5.66;92.39;100729.00;5202018;28;20025;-81
2022/02/24 02:14:54;;;;;;;10.10;1.45;;;;;;;5.71;92.35;100721.16;5195907;28;20026;-81
2022/02/24 02:17:25;;;;;;;6.85;1.27;;;;;;;5.77;91.74;100728.84;5199613;28;20025;-79
2022/02/24 02:19:55;;;;;;;3.17;1.10;;;;;;;5.74;92.70;100721.13;5195427;28;20040;-78
2022/02/24 02:22:25;;;;;;;2.83;1.00;;;;;;;5.85;91.89;100714.06;5198550;28;20071;-80
2022/02/24 02:25:00;;;;;;;4.50;0.90;;;;;;;5.87;91.42;100714.91;5194629;28;20052;-80
2022/02/24 02:27:31;;;;;;;3.67;1.20;;;;;;;5.74;93.33;100715.94;5198131;28;20025;-80
2022/02/24 02:30:01;;;;;;;5.38;1.20;;;;;;;5.75;92.82;100717.66;5196088;28;20293;-79
2022/02/24 02:32:31;;;;;;;3.35;1.17;;;;;;;5.81;92.58;100707.22;5196615;28;20025;-78
2022/02/24 02:35:02;;;;;;;4.35;1.10;;;;;;;5.84;91.97;100712.34;5202508;28;20389;-79
2022/02/24 02:37:32;;;;;;;6.07;1.15;;;;;;;5.97;91.68;100711.28;5198440;28;20025;-81
2022/02/24 02:40:05;;;;;;;5.18;0.98;;;;;;;5.95;92.63;100700.09;5195174;28;20021;-81
2022/02/24 02:42:36;;;;;;;3.47;0.90;;;;;;;5.87;92.82;100696.75;5199974;28;20026;-79
2022/02/24 02:45:07;;;;;;;6.10;1.40;;;;;;;5.96;93.64;100681.06;5195940;28;20475;-79
2022/02/24 02:47:38;;;;;;;3.97;1.20;;;;;;;5.82;94.84;100670.91;5212087;28;20068;-78
2022/02/24 02:50:08;;;;;;;4.43;1.00;;;;;;;5.81;94.75;100665.72;5197959;28;20026;-79
2022/02/24 02:52:39;;;;;;;5.05;1.35;;;;;;;5.69;95.98;100650.31;5197143;28;20056;-78
2022/02/24 02:55:11;;;;;;;2.67;1.10;;;;;;;5.69;96.72;100653.78;5196732;28;20053;-80
2022/02/24 02:57:41;;;;;;;4.43;1.10;;;;;;;5.66;96.65;100643.44;5195811;28;20025;-80
2022/02/24 03:00:14;;;;;;;5.90;1.10;;;;;;;5.61;96.43;100637.47;5197259;28;20030;-79
2022/02/24 03:02:44;;;;;;;5.40;1.23;;;;;;;5.75;95.77;100634.69;5197035;28;20025;-78
2022/02/24 03:05:14;;;;;;;2.95;0.98;;;;;;;5.82;95.88;100629.41;5203110;28;20029;-79
2022/02/24 03:07:45;;;;;;;7.57;1.27;;;;;;;5.81;95.71;100619.94;5196540;28;20038;-79
2022/02/24 03:10:15;;;;;;;3.58;1.10;;;;;;;5.82;95.55;100618.16;5203187;28;20033;-79
2022/02/24 03:12:46;;;;;;;8.18;0.95;;;;;;;5.72;96.48;100620.00;5206641;28;20104;-81
2022/02/24 03:15:17;;;;;;;4.72;1.20;;;;;;;5.63;97.44;100620.19;5207152;28;20033;-80
2022/02/24 03:17:48;;;;;;;3.83;1.15;;;;;;;5.61;96.89;100619.31;5208022;28;20568;-79
2022/02/24 03:20:19;;;;;;;4.78;1.30;;;;;;;5.64;97.90;100610.66;5207970;28;20487;-78
2022/02/24 03:22:49;;;;;;;3.90;1.15;;;;;;;5.68;97.10;100613.16;5207392;28;20020;-78
2022/02/24 03:25:19;;;;;;;5.47;1.20;;;;;;;5.73;96.09;100611.34;5208272;28;20056;-78
2022/02/24 03:27:49;;;;;;;3.30;0.90;;;;;;;5.87;95.55;100611.16;5207722;28;20128;-78
2022/02/24 03:30:20;;;;;;;6.10;1.20;;;;;;;5.88;94.79;100608.56;5207832;28;20021;-79
2022/02/24 03:32:51;;;;;;;6.72;1.20;;;;;;;6.00;94.15;100610.09;5207695;28;20022;-81
2022/02/24 03:35:21;;;;;;;4.78;1.13;;;;;;;6.17;92.08;100602.88;5204689;28;20120;-78
2022/02/24 03:37:51;;;;;;;3.10;0.88;;;;;;;6.39;90.14;100606.81;5200341;28;20415;-79
2022/02/24 03:40:22;;;;;;;4.90;1.30;;;;;;;6.64;87.67;100606.34;5201613;28;20394;-80
2022/02/24 03:42:53;;;;;;;5.30;1.20;;;;;;;6.77;88.13;100606.94;5201901;28;20380;-78
2022/02/24 03:45:23;;;;;;;3.67;0.90;;;;;;;6.97;86.79;100597.84;5206143;28;20442;-81
2022/02/24 03:47:53;;;;;;;4.13;1.00;;;;;;;6.99;86.80;100603.03;5207925;28;20479;-81
2022/02/24 03:50:24;;;;;;;2.50;1.00;;;;;;;7.03;86.61;100602.94;5207506;28;20429;-80
2022/02/24 03:52:54;;;;;;;4.60;0.75;;;;;;;7.02;86.01;100603.81;5206277;28;20025;-80
2022/02/24 03:55:25;;;;;;;4.57;0.90;;;;;;;7.22;85.37;100586.91;5208394;28;20028;-81
2022/02/24 03:57:55;;;;;;;3.30;1.00;;;;;;;7.30;85.39;100590.19;5206118;28;20024;-82
2022/02/24 04:00:25;;;;;;;4.30;1.25;;;;;;;7.35;84.38;100593.53;5200072;28;20102;-81
2022/02/24 04:02:55;;;;;;;3.60;1.05;;;;;;;7.29;85.10;100588.50;5202379;28;20017;-81
2022/02/24 04:05:26;;;;;;;5.10;1.00;;;;;;;7.35;84.91;100590.09;5203189;28;20026;-81
2022/02/24 04:07:56;;;;;;;5.07;1.20;;;;;;;7.45;83.69;100569.06;5195169;28;20025;-81
2022/02/24 04:10:26;;;;;;;2.97;1.00;;;;;;;7.54;83.65;100563.63;5194519;28;20112;-81
2022/02/24 04:12:56;;;;;;;3.88;1.05;;;;;;;7.46;84.91;100555.16;5195771;28;20036;-81
2022/02/24 04:15:27;;;;;;;4.35;1.02;;;;;;;7.45;83.71;100557.78;5193798;28;20396;-81
2022/02/24 04:17:57;;;;;;;3.63;1.02;;;;;;;7.40;84.96;100555.31;5197947;28;20025;-82
2022/02/24 04:20:27;;;;;;;3.47;1.00;;;;;;;7.53;84.19;100553.28;5196771;28;20060;-81
2022/02/24 04:22:58;;;;;;;3.53;1.15;;;;;;;7.46;84.56;100549.97;5194857;28;20040;-81
2022/02/24 04:25:28;;;;;;;3.13;1.00;;;;;;;7.45;83.74;100544.78;5194242;28;20080;-80
2022/02/24 04:27:58;;;;;;;4.30;1.10;;;;;;;7.48;84.50;100552.50;5193846;28;20477;-81
2022/02/24 04:30:29;;;;;;;4.65;1.35;;;;;;;7.53;82.72;100545.47;5197452;28;20033;-81
2022/02/24 04:32:59;;;;;;;4.75;0.90;;;;;;;7.64;82.73;100544.31;5195618;28;20026;-80
2022/02/24 04:35:29;;;;;;;4.35;1.00;;;;;;;7.60;83.45;100542.69;5191326;28;20033;-81
2022/02/24 04:38:00;;;;;;;4.60;0.90;;;;;;;7.55;83.34;100541.09;5195655;28;20383;-80
2022/02/24 04:40:30;;;;;;;5.03;1.20;;;;;;;7.54;83.70;100541.97;5197333;28;20025;-81
2022/02/24 04:43:00;;;;;;;2.50;1.08;;;;;;;7.59;83.42;100542.72;5199756;28;20033;-81
2022/02/24 04:45:30;;;;;;;4.38;1.33;;;;;;;7.54;82.77;100534.19;5205816;28;20092;-81
2022/02/24 04:48:01;;;;;;;9.80;2.08;;;;;;;7.53;83.18;100527.28;5205925;28;20025;-81
2022/02/24 04:50:31;;;;;;;6.40;1.08;;;;;;;7.56;83.61;100529.78;5205650;28;20036;-80
2022/02/24 04:53:01;;;;;;;4.10;0.90;;;;;;;7.49;84.69;100531.69;5205543;28;20085;-81
2022/02/24 04:55:32;;;;;;;5.15;1.27;;;;;;;7.50;83.70;100523.00;5204334;28;20051;-81
2022/02/24 04:58:02;;;;;;;5.28;1.02;;;;;;;7.42;84.54;100524.94;5203886;28;20028;-80
2022/02/24 05:00:33;;;;;;;4.88;1.20;;;;;;;7.46;84.89;100512.69;5205084;28;20029;-81
2022/02/24 05:03:03;;;;;;;5.53;1.60;;;;;;;7.42;83.79;100522.34;5199799;28;20106;-81
2022/02/24 05:05:33;;;;;;;3.83;1.02;;;;;;;7.52;83.62;100513.41;5194349;28;20495;-80
2022/02/24 05:08:05;;;;;;;3.20;1.10;;;;;;;7.47;84.68;100509.22;5197771;28;20403;-80
2022/02/24 05:10:35;;;;;;;6.78;1.35;;;;;;;7.52;84.70;100503.00;5194810;28;20254;-81
2022/02/24 05:13:06;;;;;;;6.15;1.48;;;;;;;7.51;84.96;100500.47;5200279;28;20521;-80
2022/02/24 05:15:36;;;;;;;6.20;1.10;;;;;;;7.39;86.03;100501.59;5205251;28;20517;-81
2022/02/24 05:18:06;;;;;;;2.75;0.70;;;;;;;7.38;85.85;100497.28;5201815;28;20426;-81
2022/02/24 05:20:36;;;;;;;3.85;1.40;;;;;;;7.38;85.59;100492.06;5206355;28;20029;-80
2022/02/24 05:23:07;;;;;;;5.47;1.20;;;;;;;7.30;87.27;100496.63;5204710;28;20305;-80
2022/02/24 05:25:37;;;;;;;3.25;1.00;;;;;;;7.35;86.00;100505.16;5206319;28;20037;-81
2022/02/24 05:28:09;;;;;;;6.28;1.45;;;;;;;7.47;84.81;100504.00;5204270;28;20057;-80
2022/02/24 05:30:39;;;;;;;6.25;1.30;;;;;;;7.36;86.03;100496.47;5206328;28;20032;-80
2022/02/24 05:33:10;;;;;;;3.55;1.05;;;;;;;7.31;85.97;100502.66;5203595;28;20397;-81
2022/02/24 05:35:41;;;;;;;6.38;1.45;;;;;;;7.28;86.48;100505.34;5196847;28;20036;-81
2022/02/24 05:38:11;;;;;;;7.38;1.33;;;;;;;7.29;86.58;100499.25;5197830;28;20021;-81
2022/02/24 05:40:41;;;;;;;6.50;1.60;;;;;;;7.39;86.10;100490.34;5201022;28;20024;-81
2022/02/24 05:43:12;;;;;;;3.28;1.17;;;;;;;7.34;86.60;100497.41;5197479;28;20025;-81
2022/02/24 05:45:45;;;;;;;3.53;1.10;;;;;;;7.36;87.11;100499.06;5193138;28;20120;-81
2022/02/24 05:48:15;;;;;;;8.63;1.15;;;;;;;7.41;86.81;100484.22;5196254;28;20153;-81
2022/02/24 05:50:46;;;;;;;10.82;1.63;;;;;;;7.36;87.07;100470.47;5194988;28;20576;-81
2022/02/24 05:53:16;;;;;;;4.88;1.10;;;;;;;7.42;87.05;100475.53;5190820;28;20076;-81
2022/02/24 05:55:46;;;;;;;4.03;1.10;;;;;;;7.37;88.10;100477.38;5193526;28;20080;-80
2022/02/24 05:58:17;;;;;;;4.03;1.10;;;;;;;7.38;87.98;100465.25;5198137;28;20071;-81
2022/02/24 06:00:47;;;;;;;7.05;1.45;;;;;;;7.28;88.36;100462.03;5192314;28;20044;-80
2022/02/24 06:03:17;;;;;;;5.72;1.20;;;;;;;7.22;88.17;100467.34;5199572;28;20439;-81
2022/02/24 06:05:51;;;;;;;7.95;1.15;;;;;;;7.27;88.74;100461.22;5190665;28;20043;-81
2022/02/24 06:08:25;;;;;;;3.30;1.10;;;;;;;7.35;88.00;100468.75;5199526;28;20037;-80
2022/02/24 06:10:55;;;;;;;3.58;1.10;;;;;;;7.21;88.79;100474.31;5203518;28;20037;-80
2022/02/24 06:13:26;;;;;;;5.85;1.33;;;;;;;7.09;90.37;100474.63;5190076;28;20037;-80
2022/02/24 06:15:57;;;;;;;3.85;1.20;;;;;;;7.18;89.90;100474.41;5195553;28;20068;-81
2022/02/24 06:18:27;;;;;;;6.78;1.20;;;;;;;7.23;89.30;100473.41;5197553;28;20488;-80
2022/02/24 06:20:57;;;;;;;4.18;1.20;;;;;;;7.07;90.85;100471.22;5201629;28;20017;-81
2022/02/24 06:23:27;;;;;;;4.40;1.25;;;;;;;7.07;90.39;100460.84;5212025;28;20041;-80
2022/02/24 06:25:58;;;;;;;7.22;1.40;;;;;;;7.08;89.92;100457.34;5190255;28;20103;-82
2022/02/24 06:28:28;;;;;;;7.40;1.85;;;;;;;7.08;90.73;100452.97;5196242;28;20377;-82
2022/02/24 06:30:58;;;;;;;4.10;1.20;;;;;;;7.22;89.11;100450.91;5190640;28;20032;-82
2022/02/24 06:33:29;;;;;;;6.40;1.52;;;;;;;7.22;89.32;100446.56;5187040;28;20025;-81
2022/02/24 06:35:59;;;;;;;5.40;1.45;;;;;;;7.25;89.95;100439.59;5196597;28;20411;-83
2022/02/24 06:38:29;;;;;;;4.45;1.27;;;;;;;7.28;89.02;100429.13;5203131;28;20029;-82
2022/02/24 06:41:00;;;;;;;5.65;1.30;;;;;;;7.39;88.09;100427.97;5194715;28;20037;-82
2022/02/24 06:43:30;;;;;;;3.55;1.05;;;;;;;7.38;88.39;100418.47;5197811;28;20109;-82
2022/02/24 06:46:00;;;;;;;5.43;1.38;;;;;;;7.39;88.68;100433.16;5193500;28;20180;-83
2022/02/24 06:48:31;;;;;;;5.43;1.50;;;;;;;7.40;88.42;100424.47;5187858;28;20044;-83
2022/02/24 06:51:01;;;;;;;8.18;1.35;;;;;;;7.50;88.15;100424.19;5200460;28;20558;-83
2022/02/24 06:53:31;;;;;;;6.97;1.42;;;;;;;7.52;88.38;100425.00;5202263;28;20022;-82
2022/02/24 06:56:02;;;;;;;9.05;1.45;;;;;;;7.43;87.89;100425.25;5187955;28;20025;-82
2022/02/24 06:58:33;;;;;;;7.82;1.70;;;;;;;7.56;87.17;100412.78;5183954;28;20033;-83
2022/02/24 07:01:03;;;;;;;5.15;1.58;;;;;;;7.57;88.33;100424.88;5197705;28;20090;-83
2022/02/24 07:03:34;;;;;;;7.55;1.40;;;;;;;7.52;87.90;100414.59;5200803;28;20028;-82
2022/02/24 07:06:04;;;;;;;6.00;1.42;;;;;;;7.57;88.40;100414.50;5191347;28;20462;-82
2022/02/24 07:08:35;;;;;;;5.93;1.30;;;;;;;7.51;88.92;100412.06;5198665;28;20128;-82
2022/02/24 07:11:06;;;;;;;6.13;1.20;;;;;;;7.47;88.80;100411.28;5194849;28;20025;-85
2022/02/24 07:13:36;;;;;;;4.57;1.30;;;;;;;7.54;87.32;100402.41;5190164;28;20037;-82
2022/02/24 07:16:07;;;;;;;4.32;1.17;;;;;;;7.64;87.41;100390.88;5201734;28;20542;-81
2022/02/24 07:18:37;;;;;;;9.95;1.30;;;;;;;7.72;87.08;100396.72;5186398;28;20037;-81
2022/02/24 07:21:08;;;;;;;8.85;1.40;;;;;;;7.60;87.54;100391.88;5190749;28;20033;-85
2022/02/24 07:23:38;;;;;;;6.30;1.48;;;;;;;7.63;87.08;100386.59;5203862;28;20057;-81
2022/02/24 07:26:10;;;;;;;5.82;1.40;;;;;;;7.57;87.85;100386.75;5204426;28;20088;-82
2022/02/24 07:28:43;;;;;;;4.35;1.20;;;;;;;7.65;86.48;100386.53;5203828;28;20471;-83
2022/02/24 07:31:13;;;;;;;7.15;1.42;;;;;;;7.83;85.40;100379.09;5203333;28;20376;-83
2022/02/24 07:33:44;;;;;;;4.97;1.33;;;;;;;7.90;85.53;100387.56;5196727;28;20091;-82
2022/02/24 07:36:14;;;;;;;5.72;1.40;;;;;;;7.91;85.54;100379.72;5191702;28;20057;-81
2022/02/24 07:38:45;;;;;;;4.70;1.38;;;;;;;7.91;84.83;100379.72;5183329;28;20034;-82
2022/02/24 07:41:15;;;;;;;7.32;1.33;;;;;;;7.96;84.06;100372.66;5192701;28;20025;-82
2022/02/24 07:43:45;;;;;;;5.32;1.50;;;;;;;7.99;85.54;100363.88;5195313;28;20021;-81
2022/02/24 07:46:16;;;;;;;4.35;1.30;;;;;;;8.08;83.88;100364.47;5182491;28;20034;-81
2022/02/24 07:48:46;;;;;;;3.30;0.98;;;;;;;8.00;85.15;100376.88;5183492;28;20034;-81
2022/02/24 07:51:16;;;;;;;4.40;1.17;;;;;;;8.08;86.24;100368.84;5182413;28;20064;-81
2022/02/24 07:53:47;;;;;;;5.43;1.58;;;;;;;8.08;84.32;100368.84;5194422;28;20518;-84
2022/02/24 07:56:17;;;;;;;5.45;1.27;;;;;;;8.06;84.17;100370.63;5202968;28;20120;-83
2022/02/24 07:58:47;;;;;;;5.72;1.33;;;;;;;8.05;84.55;100364.56;5203629;28;20022;-83
2022/02/24 08:01:23;;;;;;;5.97;1.40;;;;;;;8.07;84.56;100351.53;5199283;28;20543;-81
2022/02/24 08:03:53;;;;;;;9.45;1.40;;;;;;;8.05;84.17;100345.50;5202674;28;20529;-84
2022/02/24 08:06:24;;;;;;;5.57;1.48;;;;;;;8.05;84.71;100353.31;5193398;28;20038;-82
2022/02/24 08:08:54;;;;;;;3.55;1.20;;;;;;;8.07;84.37;100352.34;5200280;28;20126;-83
2022/02/24 08:11:24;;;;;;;6.07;1.20;;;;;;;8.11;84.03;100348.78;5198580;28;20021;-83
2022/02/24 08:13:54;;;;;;;4.60;1.13;;;;;;;8.29;84.16;100342.22;5181949;28;20029;-82
2022/02/24 08:16:25;;;;;;;3.83;1.15;;;;;;;8.23;83.94;100345.84;5187368;28;20036;-82
2022/02/24 08:18:55;;;;;;;5.28;1.38;;;;;;;8.21;84.41;100344.19;5199657;28;20033;-81
2022/02/24 08:21:27;;;;;;;4.88;1.40;;;;;;;8.18;84.06;100337.31;5189649;28;20029;-83
2022/02/24 08:23:57;;;;;;;5.32;1.52;;;;;;;8.22;83.84;100338.09;5198843;28;20021;-82
2022/02/24 08:26:27;;;;;;;5.80;1.67;;;;;;;8.26;84.29;100329.28;5201559;28;20095;-82
2022/02/24 08:28:58;;;;;;;7.50;1.38;;;;;;;8.37;83.01;100325.47;5195128;28;20030;-85
2022/02/24 08:31:29;;;;;;;5.80;1.77;;;;;;;8.31;82.67;100310.03;5193690;28;20034;-82
2022/02/24 08:33:59;;;;;;;9.10;2.45;;;;;;;8.38;83.69;100315.91;5198816;28;20024;-81
2022/02/24 08:36:30;;;;;;;10.57;2.00;;;;;;;8.39;83.81;100315.00;5187494;28;20120;-82
2022/02/24 08:39:01;;;;;;;6.53;1.58;;;;;;;8.51;83.48;100306.78;5191642;28;20029;-83
2022/02/24 08:41:35;;;;;;;5.53;1.50;;;;;;;8.43;82.83;100307.06;5190849;28;20061;-81
2022/02/24 08:44:05;;;;;;;7.53;1.35;;;;;;;8.47;83.41;100295.66;5204274;28;20029;-82
2022/02/24 08:46:35;;;;;;;4.90;1.27;;;;;;;8.54;83.07;100291.94;5190958;28;20046;-81
2022/02/24 08:49:06;;;;;;;8.30;1.30;;;;;;;8.45;84.26;100289.63;5192885;28;20032;-80
2022/02/24 08:51:36;;;;;;;5.28;1.10;;;;;;;8.41;83.62;100279.34;5184361;28;20022;-81
2022/02/24 08:54:06;;;;;;;7.22;1.73;;;;;;;8.39;83.50;100287.19;5190659;28;20052;-83
2022/02/24 08:56:37;;;;;;;5.88;1.40;;;;;;;8.44;83.59;100274.03;5194437;28;20117;-81
2022/02/24 08:59:07;;;;;;;6.22;1.48;;;;;;;8.62;83.48;100263.91;5187525;28;20087;-84
2022/02/24 09:01:37;;;;;;;6.38;1.38;;;;;;;8.59;83.34;100260.53;5189385;28;20026;-82
2022/02/24 09:04:07;;;;;;;5.43;1.33;;;;;;;8.73;83.04;100261.78;5192833;28;20392;-82
2022/02/24 09:06:38;;;;;;;9.52;1.45;;;;;;;8.78;82.80;100249.47;5198602;28;20119;-81
2022/02/24 09:09:08;;;;;;;6.45;1.30;;;;;;;8.84;83.38;100249.25;5203065;28;20030;-82
2022/02/24 09:11:40;;;;;;;3.97;1.20;;;;;;;8.82;82.79;100242.38;5196700;28;20036;-83
2022/02/24 09:14:10;;;;;;;6.05;1.20;;;;;;;8.90;81.74;100237.78;5184757;28;20036;-81
2022/02/24 09:16:43;;;;;;;6.10;1.33;;;;;;;9.06;82.56;100245.00;5194969;28;20025;-82
2022/02/24 09:19:13;;;;;;;3.70;1.27;;;;;;;9.01;80.72;100233.91;5205976;28;20180;-84
2022/02/24 09:21:44;;;;;;;6.05;1.33;;;;;;;9.19;80.70;100221.06;5201855;28;20089;-84
2022/02/24 09:24:14;;;;;;;4.53;1.10;;;;;;;9.22;81.42;100214.88;5209853;28;20210;-81
2022/02/24 09:26:45;;;;;;;6.72;1.23;;;;;;;9.27;80.78;100210.34;5209803;28;20035;-81
2022/02/24 09:29:15;;;;;;;8.15;1.35;;;;;;;9.42;81.52;100202.84;5205981;28;20503;-81
2022/02/24 09:31:46;;;;;;;5.10;1.30;;;;;;;9.55;80.77;100190.19;5192568;28;20022;-84
2022/02/24 09:34:16;;;;;;;3.85;1.00;;;;;;;9.61;81.83;100189.94;5200429;28;20044;-83
2022/02/24 09:36:47;;;;;;;3.72;1.20;;;;;;;9.86;80.53;100178.50;5199004;28;20041;-83
2022/02/24 09:39:18;;;;;;;5.43;1.20;;;;;;;9.87;79.31;100175.00;5196665;28;20033;-83
2022/02/24 09:41:48;;;;;;;4.22;1.30;;;;;;;10.10;80.16;100174.13;5188441;28;20041;-84
2022/02/24 09:46:52;;;;;;;5.28;1.20;;;;;;;10.12;79.37;100169.66;5231518;28;20064;-78
2022/02/24 09:49:26;;;;;;;5.38;1.20;;;;;;;10.11;78.74;100160.16;5235139;28;20044;-78
2022/02/24 09:51:56;;;;;;;7.85;1.30;;;;;;;10.22;80.34;100158.81;5229078;28;20033;-78
2022/02/24 09:54:26;;;;;;;7.72;1.23;;;;;;;10.15;79.46;100159.13;5238003;28;20047;-78
2022/02/24 09:56:57;;;;;;;4.47;1.20;;;;;;;10.11;79.09;100154.91;5222514;28;20146;-78
2022/02/24 09:59:27;;;;;;;2.97;1.00;;;;;;;10.19;78.56;100150.25;5219824;28;20064;-78
2022/02/24 10:02:00;;;;;;;5.47;1.10;;;;;;;10.14;79.46;100140.00;5217056;28;20029;-77
2022/02/24 10:04:30;;;;;;;7.35;1.20;;;;;;;10.20;78.47;100137.13;5229346;28;20045;-78
2022/02/24 10:07:00;;;;;;;3.05;1.05;;;;;;;10.33;78.43;100130.47;5223088;28;20040;-79
2022/02/24 10:09:32;;;;;;;4.78;0.95;;;;;;;10.32;77.62;100131.41;5222714;28;20033;-78
2022/02/24 10:12:08;;;;;;;3.80;1.38;;;;;;;10.24;78.41;100119.56;5219975;28;20036;-77
2022/02/24 10:14:38;;;;;;;5.15;1.10;;;;;;;10.35;78.46;100104.31;5220040;28;20037;-78
2022/02/24 10:17:10;;;;;;;4.15;1.15;;;;;;;10.35;78.91;100115.59;5220777;28;20314;-78
2022/02/24 10:19:46;;;;;;;3.42;1.08;;;;;;;10.49;78.37;100107.19;5220156;28;20056;-78
2022/02/24 10:22:29;;;;;;;3.72;1.00;;;;;;;10.61;78.69;100102.28;5220439;28;20017;-78
2022/02/24 10:25:03;;;;;;;6.78;1.30;;;;;;;10.72;79.36;100096.59;5222983;28;20082;-77
2022/02/24 10:27:36;;;;;;;4.80;1.35;;;;;;;10.80;79.88;100087.50;5215580;28;20037;-78
2022/02/24 10:30:19;;;;;;;2.38;0.70;;;;;;;10.92;78.17;100080.88;5220325;28;20032;-78
2022/02/24 10:32:52;;;;;;;5.90;1.40;;;;;;;10.94;76.90;100073.81;5217378;28;20105;-78
2022/02/24 10:35:28;;;;;;;7.05;1.27;;;;;;;11.04;78.36;100068.94;5226820;28;20071;-78
2022/02/24 10:38:12;;;;;;;2.92;1.10;;;;;;;10.95;79.11;100067.66;5244077;28;20035;-79
2022/02/24 10:40:46;;;;;;;4.15;1.52;;;;;;;11.06;77.52;100061.88;5221067;28;20056;-78
2022/02/24 10:43:39;;;;;;;4.82;1.10;;;;;;;10.94;74.28;100052.88;5217792;28;20017;-78
2022/02/24 10:46:13;;;;;;;3.45;1.00;;;;;;;11.16;75.05;100042.25;5219658;28;20025;-78
2022/02/24 10:48:50;;;;;;;4.57;1.10;;;;;;;11.42;76.31;100031.38;5220217;28;20064;-79
2022/02/24 10:51:22;;;;;;;6.50;1.05;;;;;;;11.58;75.04;100031.56;5219570;28;20029;-78
2022/02/24 10:54:03;;;;;;;5.63;1.23;;;;;;;11.59;73.34;100028.84;5216974;28;20089;-78
2022/02/24 10:56:36;;;;;;;4.90;1.02;;;;;;;11.32;73.61;100011.84;5218176;28;20057;-78
2022/02/24 10:59:07;;;;;;;9.18;1.17;;;;;;;11.21;73.90;100014.09;5213235;28;20055;-78
2022/02/24 11:01:38;;;;;;;6.15;1.25;;;;;;;11.22;73.67;100022.78;5217375;28;20463;-78
2022/02/24 11:04:08;;;;;;;3.83;1.20;;;;;;;11.17;75.01;100009.06;5224301;28;20088;-77
2022/02/24 11:06:39;;;;;;;4.57;1.27;;;;;;;11.08;74.37;100004.28;5220940;28;20509;-78
2022/02/24 11:09:09;;;;;;;4.93;1.50;;;;;;;11.04;74.81;99990.50;5220006;28;20172;-78
2022/02/24 11:11:40;;;;;;;5.30;1.30;;;;;;;11.06;74.35;99986.03;5221531;28;20032;-79
2022/02/24 11:14:10;;;;;;;6.07;1.02;;;;;;;10.86;75.23;99982.66;5220439;28;20414;-79
2022/02/24 11:16:40;;;;;;;3.13;0.90;;;;;;;10.87;75.16;99978.28;5221186;28;20033;-78
2022/02/24 11:19:11;;;;;;;4.60;1.33;;;;;;;10.97;76.70;99967.31;5220939;28;20088;-78
2022/02/24 11:21:43;;;;;;;4.20;1.13;;;;;;;10.98;76.78;99962.94;5219178;28;20091;-77
2022/02/24 11:24:13;;;;;;;4.57;1.33;;;;;;;10.94;74.97;99948.31;5225619;28;20035;-78
2022/02/24 11:26:52;;;;;;;2.28;0.85;;;;;;;10.88;75.17;99940.78;5219213;28;20116;-78
2022/02/24 11:29:33;;;;;;;4.65;1.20;;;;;;;11.05;76.29;99939.03;5223626;28;20505;-78
2022/02/24 11:32:06;;;;;;;4.80;1.13;;;;;;;11.11;76.71;99936.16;5219114;28;20095;-79
2022/02/24 11:34:57;;;;;;;5.18;1.25;;;;;;;11.20;75.38;99931.31;5225752;28;20037;-78
2022/02/24 11:37:29;;;;;;;7.75;1.38;;;;;;;11.27;75.26;99924.88;5216596;28;20117;-78
2022/02/24 11:40:00;;;;;;;4.85;1.55;;;;;;;11.40;74.86;99912.88;5222673;28;20300;-78
2022/02/24 11:42:34;;;;;;;4.68;1.30;;;;;;;11.51;76.14;99896.66;5221105;28;20180;-78
2022/02/24 11:45:25;;;;;;;4.90;1.42;;;;;;;11.61;74.70;99890.91;5220430;28;20037;-78
2022/02/24 11:48:00;;;;;;;6.72;1.58;;;;;;;11.63;74.57;99878.59;5222185;28;20085;-78
2022/02/24 11:50:38;;;;;;;6.45;1.20;;;;;;;11.82;74.18;99879.31;5214521;28;20306;-78
2022/02/24 11:53:28;;;;;;;8.30;1.58;;;;;;;11.58;73.64;99880.59;5212728;28;20064;-78